Time;durP1;ratioP1;P1;durP2;ratioP2;P2;SDS_P1;SDS_P2;PMS_P1;PMS_P2;Temp;Humidity;BMP_temperature;BMP_pressure;BME280_temperature;BME280_humidity;BME280_pressure;Samples;Min_cycle;Max_cycle;Signal;HPM_P1;HPM_P2
2024/02/13 00:00:26;;;;;;;8.95;3.80;;;6.70;99.90;;;;;;5032220;28;20104;-84
2024/02/13 00:02:52;;;;;;;8.18;4.35;;;6.70;99.90;;;;;;5031641;28;20022;-84
2024/02/13 00:05:18;;;;;;;7.97;4.68;;;6.70;99.90;;;;;;5035750;28;20051;-84
2024/02/13 00:07:43;;;;;;;12.15;4.47;;;6.70;99.90;;;;;;5031595;28;20029;-84
2024/02/13 00:10:11;;;;;;;9.25;4.13;;;6.70;99.90;;;;;;5043387;28;20028;-84
2024/02/13 00:12:40;;;;;;;12.30;5.30;;;6.70;99.90;;;;;;5051408;28;20053;-84
2024/02/13 00:15:07;;;;;;;10.38;5.00;;;6.80;99.90;;;;;;5051901;28;20033;-84
2024/02/13 00:17:34;;;;;;;12.02;5.55;;;6.70;99.90;;;;;;5050568;28;20404;-84
2024/02/13 00:20:04;;;;;;;9.35;5.00;;;6.70;99.90;;;;;;5051923;28;20025;-83
2024/02/13 00:22:29;;;;;;;12.07;5.10;;;6.80;99.90;;;;;;5050144;28;20480;-83
2024/02/13 00:24:55;;;;;;;13.15;4.88;;;6.70;99.90;;;;;;5047102;28;20021;-84
2024/02/13 00:27:20;;;;;;;12.32;5.38;;;6.70;99.90;;;;;;5040882;28;20520;-84
2024/02/13 00:29:46;;;;;;;10.10;5.15;;;6.70;99.90;;;;;;5031498;28;20025;-84
2024/02/13 00:32:12;;;;;;;7.68;5.22;;;6.60;99.90;;;;;;5041054;28;20052;-84
2024/02/13 00:34:39;;;;;;;11.18;6.38;;;6.60;99.90;;;;;;5051558;28;20025;-84
2024/02/13 00:37:05;;;;;;;10.48;5.28;;;6.60;99.90;;;;;;5050785;28;20029;-84
2024/02/13 00:39:31;;;;;;;8.15;6.05;;;6.60;99.90;;;;;;5051523;28;20079;-84
2024/02/13 00:41:57;;;;;;;13.48;5.55;;;6.60;99.90;;;;;;5051970;28;20028;-84
2024/02/13 00:44:24;;;;;;;9.77;5.15;;;6.50;99.90;;;;;;5036882;28;20024;-84
2024/02/13 00:46:52;;;;;;;10.90;5.85;;;6.50;99.90;;;;;;5046528;28;20087;-84
2024/02/13 00:49:19;;;;;;;5.47;4.95;;;6.50;99.90;;;;;;5051417;28;20025;-84
2024/02/13 00:51:45;;;;;;;7.57;4.97;;;6.50;99.90;;;;;;5051056;28;20075;-84
2024/02/13 00:54:16;;;;;;;9.38;5.13;;;6.40;99.90;;;;;;5051401;28;20025;-83
2024/02/13 00:56:43;;;;;;;11.32;5.32;;;6.40;99.90;;;;;;5050825;28;20037;-84
2024/02/13 00:59:09;;;;;;;9.00;5.13;;;6.50;99.90;;;;;;5050635;28;20056;-84
2024/02/13 01:01:35;;;;;;;8.77;5.47;;;6.50;99.90;;;;;;5050948;28;20057;-84
2024/02/13 01:04:06;;;;;;;12.95;5.63;;;6.50;99.90;;;;;;5051126;28;20029;-84
2024/02/13 01:06:32;;;;;;;9.27;5.47;;;6.50;99.90;;;;;;5038486;28;20048;-85
2024/02/13 01:08:57;;;;;;;9.35;5.80;;;6.50;99.90;;;;;;5041417;28;20025;-84
2024/02/13 01:11:23;;;;;;;10.43;5.53;;;6.40;99.90;;;;;;5051017;28;20067;-84
2024/02/13 01:13:48;;;;;;;8.95;5.15;;;6.40;99.90;;;;;;5050092;28;20021;-84
2024/02/13 01:16:14;;;;;;;15.48;5.68;;;6.50;99.90;;;;;;5050919;28;20049;-84
2024/02/13 01:18:41;;;;;;;10.98;5.57;;;6.40;99.90;;;;;;5050876;28;20017;-84
2024/02/13 01:21:11;;;;;;;8.68;6.05;;;6.50;99.90;;;;;;5050501;28;20481;-84
2024/02/13 01:23:38;;;;;;;10.15;5.75;;;6.40;99.90;;;;;;5050942;28;20029;-84
2024/02/13 01:26:03;;;;;;;13.00;5.97;;;6.50;99.90;;;;;;5050670;28;20083;-84
2024/02/13 01:28:29;;;;;;;11.75;6.57;;;6.50;99.90;;;;;;5049801;28;20535;-84
2024/02/13 01:30:57;;;;;;;9.95;6.22;;;6.40;99.90;;;;;;5047439;28;20040;-84
2024/02/13 01:33:23;;;;;;;10.15;6.60;;;6.40;99.90;;;;;;5042508;28;20052;-84
2024/02/13 01:35:49;;;;;;;8.60;5.82;;;6.40;99.90;;;;;;5050408;28;20530;-84
2024/02/13 01:38:15;;;;;;;14.60;6.90;;;6.40;99.90;;;;;;5054402;28;20025;-84
2024/02/13 01:40:40;;;;;;;13.82;6.82;;;6.40;99.90;;;;;;5049905;28;20383;-84
2024/02/13 01:43:06;;;;;;;14.07;7.15;;;6.40;99.90;;;;;;5035072;28;20541;-84
2024/02/13 01:45:31;;;;;;;8.82;5.88;;;6.30;99.90;;;;;;5035165;28;20515;-84
2024/02/13 01:47:58;;;;;;;13.18;7.18;;;6.30;99.90;;;;;;5046807;28;20056;-85
2024/02/13 01:50:27;;;;;;;12.73;6.88;;;6.40;99.90;;;;;;5045848;28;20021;-84
2024/02/13 01:52:53;;;;;;;8.65;7.07;;;6.40;99.90;;;;;;5042695;28;20366;-84
2024/02/13 01:55:23;;;;;;;11.13;6.78;;;6.40;99.90;;;;;;5033312;28;20088;-84
2024/02/13 01:57:49;;;;;;;15.20;7.85;;;6.40;99.90;;;;;;5035330;28;20091;-84
2024/02/13 02:00:16;;;;;;;10.05;7.43;;;6.40;99.90;;;;;;5036182;28;20030;-84
2024/02/13 02:02:44;;;;;;;15.43;8.80;;;6.40;99.90;;;;;;5050395;28;20468;-84
2024/02/13 02:05:13;;;;;;;13.00;8.07;;;6.40;99.90;;;;;;5034441;28;20025;-84
2024/02/13 02:07:42;;;;;;;8.77;6.70;;;6.40;99.90;;;;;;5041205;28;20075;-83
2024/02/13 02:10:09;;;;;;;10.18;6.60;;;6.40;99.90;;;;;;5049868;28;20021;-83
2024/02/13 02:12:35;;;;;;;13.02;7.00;;;6.40;99.90;;;;;;5051442;28;20029;-83
2024/02/13 02:15:02;;;;;;;10.75;7.60;;;6.40;99.90;;;;;;5050914;28;20523;-84
2024/02/13 02:17:28;;;;;;;13.98;7.53;;;6.30;99.90;;;;;;5053291;28;20108;-84
2024/02/13 02:19:53;;;;;;;8.68;6.75;;;6.30;99.90;;;;;;5053718;28;20442;-84
2024/02/13 02:22:19;;;;;;;11.27;7.07;;;6.30;99.90;;;;;;5053249;28;20037;-83
2024/02/13 02:24:44;;;;;;;11.02;6.95;;;6.30;99.90;;;;;;5053755;28;20080;-84
2024/02/13 02:27:10;;;;;;;15.02;7.30;;;6.30;99.90;;;;;;5053513;28;20457;-84
2024/02/13 02:29:37;;;;;;;14.20;7.10;;;6.30;99.90;;;;;;5038210;28;20149;-84
2024/02/13 02:32:03;;;;;;;14.48;7.20;;;6.30;99.90;;;;;;5035923;28;20128;-83
2024/02/13 02:34:29;;;;;;;10.00;7.30;;;6.30;99.90;;;;;;5033722;28;20378;-83
2024/02/13 02:36:54;;;;;;;11.55;6.80;;;6.40;99.90;;;;;;5049499;28;20113;-83
2024/02/13 02:39:20;;;;;;;16.13;7.60;;;6.30;99.90;;;;;;5053763;28;20044;-84
2024/02/13 02:41:52;;;;;;;13.30;7.72;;;6.40;99.90;;;;;;5054261;28;20051;-83
2024/02/13 02:44:19;;;;;;;16.48;7.90;;;6.40;99.90;;;;;;5049994;28;20064;-84
2024/02/13 02:46:44;;;;;;;13.20;7.55;;;6.30;99.90;;;;;;5032286;28;20113;-83
2024/02/13 02:49:10;;;;;;;12.18;7.60;;;6.30;99.90;;;;;;5037499;28;20455;-84
2024/02/13 02:51:36;;;;;;;9.80;7.22;;;6.30;99.90;;;;;;5032512;28;20033;-83
2024/02/13 02:54:01;;;;;;;11.10;7.47;;;6.40;99.90;;;;;;5049616;28;20027;-84
2024/02/13 02:56:27;;;;;;;10.35;7.43;;;6.40;99.90;;;;;;5039877;28;20041;-83
2024/02/13 02:58:54;;;;;;;13.93;7.55;;;6.30;99.90;;;;;;5051999;28;20468;-83
2024/02/13 03:01:20;;;;;;;17.90;7.65;;;6.40;99.90;;;;;;5037488;28;20548;-83
2024/02/13 03:03:46;;;;;;;12.95;7.05;;;6.40;99.90;;;;;;5032985;28;20109;-83
2024/02/13 03:06:13;;;;;;;10.43;7.35;;;6.40;99.90;;;;;;5032642;28;20104;-84
2024/02/13 03:08:38;;;;;;;12.45;7.45;;;6.40;99.90;;;;;;5032896;28;20412;-84
2024/02/13 03:11:04;;;;;;;10.45;6.90;;;6.40;99.90;;;;;;5048408;28;20021;-84
2024/02/13 03:13:32;;;;;;;14.88;8.00;;;6.40;99.90;;;;;;5036691;28;20136;-83
2024/02/13 03:15:57;;;;;;;16.95;7.63;;;6.40;99.90;;;;;;5032989;28;20489;-84
2024/02/13 03:18:24;;;;;;;12.50;7.35;;;6.40;99.90;;;;;;5040842;28;20146;-83
2024/02/13 03:20:50;;;;;;;10.38;6.80;;;6.40;99.90;;;;;;5051424;28;20032;-84
2024/02/13 03:23:16;;;;;;;19.38;7.68;;;6.40;99.90;;;;;;5052917;28;20025;-83
2024/02/13 03:25:41;;;;;;;12.57;6.97;;;6.40;99.90;;;;;;5051915;28;20037;-84
2024/02/13 03:28:07;;;;;;;15.40;8.77;;;6.40;99.90;;;;;;5052457;28;20013;-83
2024/02/13 03:30:33;;;;;;;15.05;7.95;;;6.40;99.90;;;;;;5051895;28;20033;-84
2024/02/13 03:32:59;;;;;;;10.52;7.43;;;6.40;99.90;;;;;;5049081;28;20115;-85
2024/02/13 03:35:25;;;;;;;12.07;7.72;;;6.40;99.90;;;;;;5032807;28;20079;-84
2024/02/13 03:37:50;;;;;;;15.57;7.97;;;6.40;99.90;;;;;;5046397;28;20494;-85
2024/02/13 03:40:16;;;;;;;9.95;6.47;;;6.40;99.90;;;;;;5051313;28;20167;-84
2024/02/13 03:42:45;;;;;;;14.68;7.22;;;6.30;99.90;;;;;;5051996;28;20029;-84
2024/02/13 03:45:10;;;;;;;10.07;6.63;;;6.30;99.90;;;;;;5042194;28;20472;-84
2024/02/13 03:47:37;;;;;;;12.43;7.35;;;6.30;99.90;;;;;;5031584;28;20057;-84
2024/02/13 03:50:03;;;;;;;17.98;6.88;;;6.30;99.90;;;;;;5032833;28;20358;-84
2024/02/13 03:52:29;;;;;;;11.18;7.15;;;6.30;99.90;;;;;;5031929;28;20035;-84
2024/02/13 03:54:54;;;;;;;12.43;7.00;;;6.20;99.90;;;;;;5031563;28;20021;-84
2024/02/13 03:57:20;;;;;;;8.95;6.55;;;6.20;99.90;;;;;;5041384;28;20036;-85
2024/02/13 03:59:45;;;;;;;8.10;6.68;;;6.20;99.90;;;;;;5041803;28;20069;-84
2024/02/13 04:02:11;;;;;;;9.40;7.10;;;6.20;99.90;;;;;;5031368;28;20026;-84
2024/02/13 04:04:37;;;;;;;11.45;6.40;;;6.20;99.90;;;;;;5039302;28;20033;-85
2024/02/13 04:07:04;;;;;;;10.27;6.75;;;6.20;99.90;;;;;;5052125;28;20510;-84
2024/02/13 04:09:30;;;;;;;11.43;5.95;;;6.20;99.90;;;;;;5050752;28;20473;-85
2024/02/13 04:11:56;;;;;;;12.02;7.00;;;6.10;99.90;;;;;;5040746;28;20076;-85
2024/02/13 04:14:23;;;;;;;9.50;6.22;;;6.20;99.90;;;;;;5047100;28;20017;-84
2024/02/13 04:16:49;;;;;;;13.65;6.25;;;6.20;99.90;;;;;;5050729;28;20048;-84
2024/02/13 04:19:15;;;;;;;9.65;5.95;;;6.20;99.90;;;;;;5042577;28;20036;-85
2024/02/13 04:21:40;;;;;;;11.02;6.53;;;6.20;99.90;;;;;;5045594;28;20071;-84
2024/02/13 04:24:06;;;;;;;12.10;5.88;;;6.20;99.90;;;;;;5050949;28;20025;-84
2024/02/13 04:26:32;;;;;;;9.95;6.65;;;6.20;99.90;;;;;;5033313;28;20034;-84
2024/02/13 04:28:58;;;;;;;11.93;7.05;;;6.20;99.90;;;;;;5051519;28;20025;-84
2024/02/13 04:31:24;;;;;;;18.75;7.53;;;6.20;99.90;;;;;;5051176;28;20048;-85
2024/02/13 04:33:49;;;;;;;12.93;6.38;;;6.20;99.90;;;;;;5052066;28;20035;-84
2024/02/13 04:36:17;;;;;;;13.23;7.47;;;6.20;99.90;;;;;;5050929;28;20044;-84
2024/02/13 04:38:43;;;;;;;11.57;6.90;;;6.10;99.90;;;;;;5048504;28;20468;-82
2024/02/13 04:41:09;;;;;;;13.30;6.75;;;6.10;99.90;;;;;;5033439;28;20503;-83
2024/02/13 04:43:35;;;;;;;10.75;6.47;;;6.10;99.90;;;;;;5050260;28;20025;-83
2024/02/13 04:46:02;;;;;;;15.95;7.18;;;6.10;99.90;;;;;;5031536;28;20033;-84
2024/02/13 04:48:28;;;;;;;11.18;6.72;;;6.00;99.90;;;;;;5030970;28;20563;-84
2024/02/13 04:50:53;;;;;;;14.45;6.50;;;6.10;99.90;;;;;;5030989;28;20060;-83
2024/02/13 04:53:21;;;;;;;15.32;7.65;;;6.00;99.90;;;;;;5044804;28;20025;-84
2024/02/13 04:55:47;;;;;;;19.63;6.90;;;6.10;99.90;;;;;;5051402;28;20040;-84
2024/02/13 04:58:17;;;;;;;12.75;6.63;;;6.00;99.90;;;;;;5050360;28;20028;-84
2024/02/13 05:00:51;;;;;;;12.70;6.90;;;6.10;99.90;;;;;;5050533;28;20025;-84
2024/02/13 05:03:27;;;;;;;13.38;6.38;;;6.10;99.90;;;;;;5047912;28;20037;-83
2024/02/13 05:08:37;;;;;;;15.68;7.75;;;6.10;99.90;;;;;;5041991;28;20043;-83
2024/02/13 05:11:03;;;;;;;14.15;7.25;;;6.10;99.90;;;;;;5042514;28;20468;-83
2024/02/13 05:13:31;;;;;;;11.10;7.22;;;6.00;99.90;;;;;;5054731;28;20025;-83
2024/02/13 05:15:58;;;;;;;11.57;7.30;;;6.00;99.90;;;;;;5054384;28;20131;-83
2024/02/13 05:18:24;;;;;;;18.50;7.65;;;6.00;99.90;;;;;;5048196;28;20096;-83
2024/02/13 05:20:50;;;;;;;26.05;8.30;;;6.00;99.90;;;;;;5034988;28;20112;-84
2024/02/13 05:23:16;;;;;;;15.80;6.78;;;6.00;99.90;;;;;;5047025;28;20028;-83
2024/02/13 05:25:41;;;;;;;18.05;7.45;;;6.00;99.90;;;;;;5051594;28;20025;-83
2024/02/13 05:28:07;;;;;;;15.50;7.05;;;6.00;99.90;;;;;;5054986;28;20079;-83
2024/02/13 05:30:32;;;;;;;16.55;6.82;;;6.00;99.90;;;;;;5038976;28;20116;-84
2024/02/13 05:32:58;;;;;;;24.00;7.32;;;6.00;99.90;;;;;;5034005;28;20057;-84
2024/02/13 05:35:24;;;;;;;19.02;7.70;;;6.00;99.90;;;;;;5034676;28;20034;-83
2024/02/13 05:37:51;;;;;;;18.58;7.82;;;6.00;99.90;;;;;;5034989;28;20026;-83
2024/02/13 05:40:17;;;;;;;13.57;7.05;;;5.90;99.90;;;;;;5033981;28;20378;-83
2024/02/13 05:42:44;;;;;;;11.95;7.55;;;6.00;99.90;;;;;;5054209;28;20036;-83
2024/02/13 05:45:10;;;;;;;16.92;7.57;;;6.00;99.90;;;;;;5050690;28;20553;-83
2024/02/13 05:47:37;;;;;;;11.20;7.50;;;6.00;99.90;;;;;;5049129;28;20464;-84
2024/02/13 05:50:07;;;;;;;17.17;9.02;;;6.00;99.90;;;;;;5054265;28;20036;-84
2024/02/13 05:52:34;;;;;;;22.65;8.40;;;6.00;99.90;;;;;;5054267;28;20499;-84
2024/02/13 05:54:59;;;;;;;18.55;7.88;;;6.00;99.90;;;;;;5042292;28;20378;-83
2024/02/13 05:57:25;;;;;;;15.02;9.43;;;6.00;99.90;;;;;;5034173;28;20041;-84
2024/02/13 05:59:51;;;;;;;18.92;7.18;;;6.00;99.90;;;;;;5035897;28;20029;-83
2024/02/13 06:02:17;;;;;;;18.92;8.45;;;6.00;99.90;;;;;;5053380;28;20068;-83
2024/02/13 06:04:43;;;;;;;13.10;8.38;;;6.00;99.90;;;;;;5053759;28;20021;-84
2024/02/13 06:07:09;;;;;;;15.52;8.10;;;6.10;99.90;;;;;;5046684;28;20037;-84
2024/02/13 06:09:35;;;;;;;19.48;8.25;;;6.00;99.90;;;;;;5041260;28;20025;-83
2024/02/13 06:12:01;;;;;;;17.33;8.45;;;6.00;99.90;;;;;;5050765;28;20052;-84
2024/02/13 06:14:26;;;;;;;15.20;8.05;;;6.00;99.90;;;;;;5053657;28;20029;-84
2024/02/13 06:16:52;;;;;;;18.95;7.95;;;6.00;99.90;;;;;;5042789;28;20782;-84
2024/02/13 06:19:17;;;;;;;12.32;7.15;;;6.00;99.90;;;;;;5033590;28;20032;-84
2024/02/13 06:21:43;;;;;;;15.95;7.93;;;6.00;99.90;;;;;;5032874;28;20108;-83
2024/02/13 06:24:08;;;;;;;12.95;7.30;;;6.00;99.90;;;;;;5033758;28;20076;-84
2024/02/13 06:26:37;;;;;;;16.83;8.68;;;6.00;99.90;;;;;;5034054;28;20021;-83
2024/02/13 06:29:02;;;;;;;14.85;7.20;;;6.10;99.90;;;;;;5045101;28;20051;-83
2024/02/13 06:31:32;;;;;;;14.93;6.57;;;6.00;99.90;;;;;;5052159;28;20104;-83
2024/02/13 06:33:58;;;;;;;17.83;7.93;;;6.00;99.90;;;;;;5043762;28;20128;-83
2024/02/13 06:36:24;;;;;;;15.20;7.35;;;6.00;99.90;;;;;;5045779;28;20041;-83
2024/02/13 06:38:49;;;;;;;14.45;6.55;;;6.00;99.90;;;;;;5053218;28;20021;-83
2024/02/13 06:41:15;;;;;;;18.73;7.22;;;6.00;99.90;;;;;;5037260;28;20053;-83
2024/02/13 06:43:41;;;;;;;18.00;7.35;;;6.00;99.90;;;;;;5032630;28;20020;-83
2024/02/13 06:46:09;;;;;;;19.33;8.23;;;6.00;99.90;;;;;;5033757;28;20377;-83
2024/02/13 06:48:35;;;;;;;24.38;8.32;;;6.00;99.90;;;;;;5033228;28;20163;-84
2024/02/13 06:51:00;;;;;;;18.40;7.35;;;6.00;99.90;;;;;;5032876;28;20574;-83
2024/02/13 06:53:27;;;;;;;14.45;7.00;;;5.90;99.90;;;;;;5043316;28;20469;-83
2024/02/13 06:55:52;;;;;;;12.48;6.68;;;5.90;99.90;;;;;;5046199;28;20517;-84
2024/02/13 06:58:18;;;;;;;16.63;6.97;;;5.90;99.90;;;;;;5042892;28;20036;-83
2024/02/13 07:00:44;;;;;;;16.02;6.72;;;5.90;99.90;;;;;;5052958;28;20021;-83
2024/02/13 07:03:09;;;;;;;11.38;6.30;;;6.00;99.90;;;;;;5053200;28;20017;-83
2024/02/13 07:05:37;;;;;;;31.02;7.53;;;6.00;99.90;;;;;;5034483;28;20155;-84
2024/02/13 07:08:03;;;;;;;13.20;6.43;;;6.00;99.90;;;;;;5050351;28;20032;-84
2024/02/13 07:10:28;;;;;;;16.65;7.20;;;6.00;99.90;;;;;;5050973;28;20036;-83
2024/02/13 07:12:56;;;;;;;14.93;6.47;;;6.00;99.90;;;;;;5051288;28;20028;-84
2024/02/13 07:15:22;;;;;;;19.77;7.38;;;6.00;99.90;;;;;;5049530;28;20037;-84
2024/02/13 07:17:48;;;;;;;12.02;5.97;;;6.00;99.90;;;;;;5047055;28;20491;-83
2024/02/13 07:20:14;;;;;;;12.07;6.45;;;6.00;99.90;;;;;;5043520;28;20036;-83
2024/02/13 07:22:40;;;;;;;12.57;6.45;;;6.00;99.90;;;;;;5046600;28;20029;-83
2024/02/13 07:25:08;;;;;;;10.07;6.38;;;6.00;99.90;;;;;;5034304;28;20030;-83
2024/02/13 07:27:38;;;;;;;11.98;6.72;;;5.90;99.90;;;;;;5049535;28;20056;-83
2024/02/13 07:30:08;;;;;;;10.65;5.65;;;5.90;99.90;;;;;;5050431;28;20057;-84
2024/02/13 07:32:34;;;;;;;16.90;6.40;;;5.90;99.90;;;;;;5043627;28;20476;-83
2024/02/13 07:35:04;;;;;;;16.90;6.60;;;5.90;99.90;;;;;;5049741;28;20029;-84
2024/02/13 07:37:31;;;;;;;16.67;6.35;;;5.90;99.90;;;;;;5043897;28;20095;-84
2024/02/13 07:40:00;;;;;;;16.55;6.82;;;5.90;99.90;;;;;;5040456;28;20029;-84
2024/02/13 07:42:28;;;;;;;11.32;5.80;;;5.90;99.90;;;;;;5049679;28;20481;-84
2024/02/13 07:44:58;;;;;;;12.20;6.10;;;5.90;99.90;;;;;;5043882;28;20469;-84
2024/02/13 07:47:25;;;;;;;9.20;5.72;;;5.90;99.90;;;;;;5043728;28;20376;-84
2024/02/13 07:49:54;;;;;;;12.98;5.60;;;5.90;99.90;;;;;;5045594;28;20029;-84
2024/02/13 07:52:19;;;;;;;20.00;5.47;;;6.00;99.90;;;;;;5049996;28;20400;-84
2024/02/13 07:54:46;;;;;;;8.48;5.35;;;5.90;99.90;;;;;;5048813;28;20511;-84
2024/02/13 07:57:16;;;;;;;9.23;5.20;;;6.00;99.90;;;;;;5049677;28;20048;-83
2024/02/13 07:59:42;;;;;;;9.68;5.20;;;5.90;99.90;;;;;;5040051;28;20025;-83
2024/02/13 08:02:10;;;;;;;10.45;5.57;;;5.90;99.90;;;;;;5049414;28;20029;-83
2024/02/13 08:04:36;;;;;;;9.80;4.90;;;6.00;99.90;;;;;;5036951;28;20116;-83
2024/02/13 08:07:02;;;;;;;9.98;5.38;;;6.00;99.90;;;;;;5041320;28;20376;-83
2024/02/13 08:09:28;;;;;;;10.82;5.70;;;6.00;99.90;;;;;;5040540;28;20096;-83
2024/02/13 08:11:53;;;;;;;8.02;5.50;;;6.00;99.90;;;;;;5046286;28;20504;-83
2024/02/13 08:14:19;;;;;;;13.48;5.63;;;6.10;99.90;;;;;;5048977;28;20182;-82
2024/02/13 08:16:45;;;;;;;12.60;4.97;;;6.00;99.90;;;;;;5033930;28;20048;-83
2024/02/13 08:19:11;;;;;;;21.42;5.50;;;6.10;99.90;;;;;;5038300;28;20026;-83
2024/02/13 08:21:37;;;;;;;15.10;5.63;;;6.10;99.90;;;;;;5032881;28;20025;-83
2024/02/13 08:24:05;;;;;;;8.73;4.75;;;6.10;99.90;;;;;;5028926;28;20424;-84
2024/02/13 08:26:31;;;;;;;18.52;5.45;;;6.10;99.90;;;;;;5033621;28;20036;-84
2024/02/13 08:28:57;;;;;;;12.10;4.43;;;6.10;99.90;;;;;;5036554;28;20032;-83
2024/02/13 08:31:24;;;;;;;12.85;4.10;;;6.10;99.90;;;;;;5051300;28;20114;-83
2024/02/13 08:33:51;;;;;;;12.20;5.18;;;6.10;99.90;;;;;;5045911;28;20045;-83
2024/02/13 08:36:18;;;;;;;7.22;4.60;;;6.10;99.90;;;;;;5034282;28;20043;-81
2024/02/13 08:38:44;;;;;;;8.80;5.35;;;7.10;99.90;;;;;;5031689;28;20105;-79
2024/02/13 08:41:14;;;;;;;8.98;5.28;;;6.20;99.90;;;;;;5038233;28;20036;-83
2024/02/13 08:43:40;;;;;;;13.32;5.22;;;6.20;99.90;;;;;;5043572;28;20461;-78
2024/02/13 08:46:06;;;;;;;15.77;4.68;;;6.30;99.90;;;;;;5034432;28;20036;-84
2024/02/13 08:48:31;;;;;;;8.73;4.22;;;6.30;99.90;;;;;;5030246;28;20030;-83
2024/02/13 08:50:57;;;;;;;10.70;4.38;;;6.30;99.90;;;;;;5030957;28;20033;-80
2024/02/13 08:53:25;;;;;;;8.48;4.38;;;6.40;99.90;;;;;;5031604;28;20030;-80
2024/02/13 08:55:52;;;;;;;9.40;4.63;;;6.40;99.90;;;;;;5049833;28;20040;-82
2024/02/13 08:58:18;;;;;;;11.57;5.30;;;6.40;99.90;;;;;;5046257;28;20021;-82
2024/02/13 09:00:43;;;;;;;7.53;4.05;;;6.50;99.90;;;;;;5048781;28;20032;-84
2024/02/13 09:03:09;;;;;;;6.40;3.83;;;6.50;99.90;;;;;;5039463;28;20036;-83
2024/02/13 09:05:34;;;;;;;13.00;4.47;;;6.60;99.90;;;;;;5045245;28;20032;-85
2024/02/13 09:08:00;;;;;;;6.65;4.35;;;6.60;99.90;;;;;;5048802;28;20032;-85
2024/02/13 09:10:27;;;;;;;10.52;4.13;;;6.60;99.90;;;;;;5047251;28;20538;-85
2024/02/13 09:12:53;;;;;;;7.85;3.90;;;6.70;99.90;;;;;;5049483;28;20035;-86
2024/02/13 09:15:18;;;;;;;9.45;4.50;;;6.80;99.90;;;;;;5049068;28;20486;-85
2024/02/13 09:17:45;;;;;;;6.13;3.72;;;6.80;99.90;;;;;;5045946;28;20025;-81
2024/02/13 09:20:15;;;;;;;11.20;4.32;;;6.80;99.90;;;;;;5035013;28;20052;-85
2024/02/13 09:22:44;;;;;;;8.40;3.65;;;6.80;99.90;;;;;;5032314;28;20029;-81
2024/02/13 09:25:12;;;;;;;9.00;3.55;;;6.90;99.90;;;;;;5039922;28;20030;-85
2024/02/13 09:27:41;;;;;;;9.63;3.95;;;6.90;99.90;;;;;;5027029;28;20032;-82
2024/02/13 09:30:07;;;;;;;7.25;3.75;;;7.00;99.90;;;;;;5028648;28;20022;-82
2024/02/13 09:32:35;;;;;;;12.88;3.90;;;7.00;99.90;;;;;;5047248;28;20132;-83
2024/02/13 09:35:03;;;;;;;8.07;3.72;;;7.00;99.90;;;;;;5031258;28;20030;-80
2024/02/13 09:37:29;;;;;;;10.60;3.92;;;7.00;99.90;;;;;;5036300;28;20029;-81
2024/02/13 09:39:55;;;;;;;8.85;3.38;;;7.00;99.90;;;;;;5029740;28;20024;-84
2024/02/13 09:42:23;;;;;;;7.22;3.70;;;6.90;99.90;;;;;;5045192;28;20079;-84
2024/02/13 09:44:50;;;;;;;7.15;3.00;;;7.00;99.90;;;;;;5037357;28;20034;-85
2024/02/13 09:47:16;;;;;;;8.60;3.30;;;7.10;99.90;;;;;;5031535;28;20440;-84
2024/02/13 09:49:43;;;;;;;6.20;2.90;;;7.10;99.90;;;;;;5049770;28;20051;-84
2024/02/13 09:52:12;;;;;;;10.57;3.63;;;7.10;99.90;;;;;;5048973;28;20142;-84
2024/02/13 09:54:40;;;;;;;7.47;3.20;;;7.10;99.90;;;;;;5034907;28;20025;-83
2024/02/13 09:57:08;;;;;;;9.68;3.50;;;7.10;99.90;;;;;;5035316;28;20041;-84
2024/02/13 09:59:33;;;;;;;11.70;4.57;;;7.10;99.90;;;;;;5034148;28;20031;-83
2024/02/13 10:01:59;;;;;;;8.77;3.78;;;7.20;99.90;;;;;;5041614;28;20037;-83
2024/02/13 10:04:25;;;;;;;10.13;3.75;;;7.20;99.90;;;;;;5054350;28;20021;-85
2024/02/13 10:06:51;;;;;;;8.65;3.40;;;7.30;99.90;;;;;;5051661;28;20094;-80
2024/02/13 10:09:18;;;;;;;10.13;3.45;;;7.40;99.90;;;;;;5040341;28;20033;-81
2024/02/13 10:11:47;;;;;;;7.47;3.35;;;7.40;99.90;;;;;;5045063;28;20433;-82
2024/02/13 10:14:20;;;;;;;8.32;3.70;;;7.50;99.90;;;;;;5052922;28;20538;-81
2024/02/13 10:16:49;;;;;;;9.68;3.45;;;7.50;99.90;;;;;;5050833;28;20037;-82
2024/02/13 10:19:17;;;;;;;13.90;3.70;;;7.50;99.90;;;;;;5052831;28;20461;-82
2024/02/13 10:21:45;;;;;;;12.75;4.25;;;7.50;99.90;;;;;;5051449;28;20037;-84
2024/02/13 10:24:12;;;;;;;6.63;3.30;;;7.50;99.90;;;;;;5052379;28;20025;-83
2024/02/13 10:26:38;;;;;;;4.47;3.15;;;7.60;99.90;;;;;;5050205;28;20729;-82
2024/02/13 10:29:03;;;;;;;9.77;3.42;;;7.60;99.90;;;;;;5047632;28;20065;-82
2024/02/13 10:31:34;;;;;;;10.38;3.20;;;7.60;99.90;;;;;;5051094;28;20025;-82
2024/02/13 10:34:11;;;;;;;5.20;3.00;;;8.50;99.90;;;;;;5052215;28;20060;-81
2024/02/13 10:36:42;;;;;;;12.32;3.83;;;7.70;99.90;;;;;;5052607;28;20033;-84
2024/02/13 10:39:11;;;;;;;;;;;7.70;99.90;;;;;;5054223;28;20032;-82
2024/02/13 10:41:42;;;;;;;9.15;2.85;;;7.70;99.90;;;;;;5052650;28;19905;-82
2024/02/13 10:44:13;;;;;;;10.70;3.25;;;7.80;99.90;;;;;;5052859;28;20021;-83
2024/02/13 10:46:40;;;;;;;5.97;3.35;;;7.80;99.90;;;;;;5053243;28;20037;-84
2024/02/13 10:49:18;;;;;;;8.30;3.42;;;7.90;99.90;;;;;;5052736;28;20343;-83
2024/02/13 10:51:45;;;;;;;11.95;4.20;;;7.90;99.90;;;;;;5045839;28;20026;-83
2024/02/13 10:54:12;;;;;;;5.18;3.17;;;8.00;99.90;;;;;;5042079;28;20014;-83
2024/02/13 10:56:39;;;;;;;9.00;3.75;;;8.10;99.90;;;;;;5037053;28;20401;-83
2024/02/13 10:59:06;;;;;;;8.80;3.47;;;8.10;99.90;;;;;;5033460;28;20018;-83
2024/02/13 11:01:37;;;;;;;5.07;3.22;;;8.10;99.90;;;;;;5032148;28;20109;-83
2024/02/13 11:04:03;;;;;;;7.03;2.85;;;8.10;99.90;;;;;;5031608;28;20021;-83
2024/02/13 11:06:30;;;;;;;4.97;3.03;;;8.20;99.90;;;;;;5031876;28;20038;-84
2024/02/13 11:08:57;;;;;;;11.07;3.10;;;8.10;99.90;;;;;;5031254;28;20043;-81
2024/02/13 11:11:24;;;;;;;3.75;2.40;;;8.20;99.90;;;;;;5043509;28;20036;-84
2024/02/13 11:13:50;;;;;;;6.70;2.78;;;8.20;99.90;;;;;;5051126;28;20108;-81
2024/02/13 11:16:17;;;;;;;8.55;2.78;;;8.30;99.90;;;;;;5048819;28;20424;-82
2024/02/13 11:18:46;;;;;;;10.55;2.83;;;8.30;99.90;;;;;;5051263;28;20025;-83
2024/02/13 11:21:26;;;;;;;3.95;2.85;;;8.40;99.90;;;;;;5052544;28;20021;-84
2024/02/13 11:23:59;;;;;;;6.25;2.70;;;8.40;99.90;;;;;;5052429;28;20487;-84
2024/02/13 11:26:32;;;;;;;6.25;2.45;;;8.50;99.90;;;;;;5051528;28;20500;-81
2024/02/13 11:29:12;;;;;;;7.05;2.63;;;8.60;99.90;;;;;;5052766;28;20033;-83
2024/02/13 11:31:38;;;;;;;9.45;2.97;;;8.60;99.90;;;;;;5049389;28;20039;-84
2024/02/13 11:34:13;;;;;;;7.57;2.72;;;8.70;99.90;;;;;;5045490;28;20046;-82
2024/02/13 11:36:38;;;;;;;8.57;3.28;;;8.80;99.90;;;;;;5037888;28;20041;-89
2024/02/13 11:39:06;;;;;;;7.88;3.00;;;8.80;99.90;;;;;;5046646;28;20453;-81
2024/02/13 11:41:36;;;;;;;5.57;2.78;;;8.90;99.90;;;;;;5050399;28;20043;-83
2024/02/13 11:44:09;;;;;;;8.02;3.08;;;9.00;99.90;;;;;;5042892;28;20017;-86
2024/02/13 11:46:50;;;;;;;5.38;2.42;;;9.10;99.90;;;;;;5042923;28;20025;-82
2024/02/13 11:49:16;;;;;;;7.60;3.08;;;9.10;99.90;;;;;;5033666;28;20029;-83
2024/02/13 11:51:42;;;;;;;5.43;2.80;;;9.10;99.90;;;;;;5035973;28;20029;-82
2024/02/13 11:54:08;;;;;;;5.90;2.58;;;9.10;99.90;;;;;;5040930;28;20045;-83
2024/02/13 11:56:35;;;;;;;9.50;2.95;;;9.10;99.90;;;;;;5033715;28;20044;-83
2024/02/13 11:59:07;;;;;;;7.10;2.33;;;9.10;99.90;;;;;;5052231;28;20025;-83
2024/02/13 12:01:36;;;;;;;5.50;2.55;;;9.00;99.90;;;;;;5050214;28;20032;-82
2024/02/13 12:04:07;;;;;;;4.70;2.80;;;9.00;99.90;;;;;;5051172;28;20473;-83
2024/02/13 12:06:34;;;;;;;5.55;2.33;;;9.00;99.90;;;;;;5050799;28;20481;-84
2024/02/13 12:09:00;;;;;;;5.53;2.50;;;9.20;99.90;;;;;;5052082;28;20091;-83
2024/02/13 12:11:28;;;;;;;5.05;2.35;;;9.00;99.90;;;;;;5049725;28;20037;-87
2024/02/13 12:13:54;;;;;;;4.07;2.13;;;10.00;99.90;;;;;;5033778;28;20494;-82
2024/02/13 12:16:23;;;;;;;7.35;2.25;;;9.00;99.90;;;;;;5037572;28;20349;-84
2024/02/13 12:18:49;;;;;;;7.85;2.47;;;9.00;99.90;;;;;;5043446;28;20086;-84
2024/02/13 12:21:15;;;;;;;6.72;3.40;;;9.10;99.90;;;;;;5044833;28;20025;-84
2024/02/13 12:23:50;;;;;;;8.50;2.90;;;9.10;99.90;;;;;;5048651;28;20032;-84
2024/02/13 12:26:19;;;;;;;8.38;2.53;;;9.10;99.90;;;;;;5049541;28;20499;-83
2024/02/13 12:28:59;;;;;;;9.48;2.03;;;9.20;99.90;;;;;;5042936;28;20029;-85
2024/02/13 12:31:27;;;;;;;6.03;2.20;;;9.20;99.90;;;;;;5045386;28;20025;-83
2024/02/13 12:34:06;;;;;;;8.82;2.60;;;9.20;99.90;;;;;;5048995;28;20033;-84
2024/02/13 12:36:33;;;;;;;4.22;2.35;;;9.20;99.90;;;;;;5044929;28;20037;-83
2024/02/13 12:39:16;;;;;;;4.82;2.28;;;9.20;99.90;;;;;;5048664;28;20021;-84
2024/02/13 12:41:43;;;;;;;6.88;2.50;;;9.20;99.90;;;;;;5048677;28;20025;-83
2024/02/13 12:44:09;;;;;;;10.05;2.05;;;9.20;99.90;;;;;;5051370;28;20037;-84
2024/02/13 12:46:36;;;;;;;5.95;2.10;;;9.20;99.90;;;;;;5049411;28;20357;-84
2024/02/13 12:49:06;;;;;;;2.88;2.05;;;9.20;99.90;;;;;;5049622;28;20468;-84
2024/02/13 12:51:33;;;;;;;6.22;2.50;;;9.20;99.90;;;;;;5034351;28;20534;-84